• Join FlightAware (Why Join?)
  • Login
  • US Flag 
06:16AM EDT


 

Airport Tracker/Info


-or-


 

Live Flight TrackerFlight Track Log ✈ DAL268 ✈ 01-Jul-2013 ✈ KJFK - LLBG / TLV

Flight Track Log - Related Links

Times and Time Zones

All times are in EDT time to prevent confusion due to time zone crossing. See the DAL268 flight status page for this flight to view local times or setup timezone preferences in your user account.

Time Position Orientation Groundspeed Altitude Reporting Facility
EDT Latitude Longitude Course Direction KTS MPH feet Rate Location/Type
11:55PM 40.6360 -73.7810 North 2 2  Level FlightAware
11:56PM 40.6360 -73.7800 90° East 2 2  Level FlightAware
11:58PM 40.6350 -73.7800 37° Northeast 10 12  Level FlightAware
11:59PM 40.8923 -73.5411 37° Northeast  Level FlightAware Approximate
11:59PM 40.6340 -73.7800 180° South 10 12  Level FlightAware
12:00AM 40.6340 -73.7790 90° East 11 13  Level FlightAware
12:02AM 40.6320 -73.7790 180° South 2 2  Level FlightAware
12:04AM 40.6310 -73.7790 37° Northeast 2 2  Level FlightAware
12:05AM 40.8968 -73.5366 37° Northeast  Level FlightAware Approximate
12:06AM 40.6300 -73.7790 180° South 20 23  Level FlightAware
12:06AM 40.6300 -73.7780 90° East 23 26  Level FlightAware
12:07AM 40.6300 -73.7770 90° East 18 21  Level FlightAware
12:07AM 40.6310 -73.7760 37° Northeast 22 25  Level FlightAware
12:08AM 40.6320 -73.7750 37° Northeast 28 32  Level FlightAware
12:08AM 40.6330 -73.7740 37° Northeast 31 36  Level FlightAware
12:09AM 40.6340 -73.7730 37° Northeast 33 38  Level FlightAware
12:09AM 40.6360 -73.7710 37° Northeast 16 18  Level FlightAware
12:10AM 40.6370 -73.7700 37° Northeast 34 39  Level FlightAware
12:10AM 40.6390 -73.7690 21° North 34 39  Level FlightAware
12:11AM 40.6400 -73.7700 323° Northwest 13 15  Level FlightAware
12:11AM 40.6410 -73.7700 360° North 21 24  Level FlightAware
12:12AM 40.6410 -73.7690 90° East 21 24  Level FlightAware
12:13AM 40.6410 -73.7680 90° East 2 2  Level FlightAware
12:13AM 40.6400 -73.7680 180° South 2 2  Level FlightAware
12:16AM 40.9103 -73.5231 37° Northeast  Level FlightAware Approximate
12:16AM 40.6400 -73.7670 37° Northeast 18 21  Level FlightAware
12:16AM 40.6410 -73.7650 57° Northeast 24 28  Level FlightAware
12:17AM 40.6400 -73.7630 123° Southeast 24 28  Level FlightAware
12:17AM 40.6390 -73.7640 217° Southwest 44 51 60 Level FlightAware
12:18AM 40.6160 -73.7820 211° Southwest 174 200 100 780 Climbing FlightAware
12:19AM 40.5960 -73.7960 208° Southwest 175 201 1,000 1,740 Climbing FlightAware
12:19AM 40.5780 -73.8100 211° Southwest 188 216 1,700 1,020 Climbing FlightAware
12:19AM 40.5590 -73.8180 198° South 225 259 1,800 1,080 Climbing FlightAware
12:20AM 40.5250 -73.8120 172° South 257 296 2,600 1,800 Climbing FlightAware
12:20AM 40.5090 -73.7990 148° Southeast 272 313 3,200 2,160 Climbing FlightAware
12:20AM 40.4971 -73.7816 132° Southeast 287 330 3,700 2,400 Climbing FlightAware ADS-B
12:20AM 40.4905 -73.7638 116° Southeast 297 342 4,200 3,000 Climbing FlightAware ADS-B
12:21AM 40.4885 -73.7545 106° East 302 348 4,500 3,000 Climbing FlightAware ADS-B
12:21AM 40.4875 -73.7458 99° East 306 352 4,700 2,640 Climbing FlightAware ADS-B
12:21AM 40.4872 -73.7371 93° East 308 354 4,900 3,000 Climbing FlightAware ADS-B
12:21AM 40.4874 -73.7295 88° East 311 358 5,100 2,640 Climbing FlightAware ADS-B
12:21AM 40.4882 -73.7209 83° East 313 360 5,300 3,000 Climbing FlightAware ADS-B
12:21AM 40.4899 -73.7121 76° East 316 364 5,600 3,000 Climbing FlightAware ADS-B
12:21AM 40.4924 -73.7026 71° East 320 368 5,800 2,400 Climbing FlightAware ADS-B
12:21AM 40.4956 -73.6942 63° Northeast 324 373 6,000 2,160 Climbing FlightAware ADS-B
12:21AM 40.5003 -73.6838 59° Northeast 326 375 6,200 2,400 Climbing FlightAware ADS-B
12:21AM 40.5038 -73.6775 54° Northeast 328 377 6,400 2,640 Climbing FlightAware ADS-B
12:21AM 40.5086 -73.6701 50° Northeast 329 379 6,600 2,640 Climbing FlightAware ADS-B
12:21AM 40.5134 -73.6642 43° Northeast 329 379 6,800 3,300 Climbing FlightAware ADS-B
12:22AM 40.5193 -73.6580 39° Northeast 330 380 7,100 3,000 Climbing FlightAware ADS-B
12:22AM 40.5333 -73.6438 38° Northeast 334 384 7,600 2,340 Climbing FlightAware ADS-B
12:22AM 40.5471 -73.6296 38° Northeast 338 389 8,000 2,220 Climbing FlightAware ADS-B
12:22AM 40.5622 -73.6148 37° Northeast 339 390 8,500 2,700 Climbing FlightAware ADS-B
12:22AM 40.5752 -73.6034 34° Northeast 340 391 9,000 2,820 Climbing FlightAware ADS-B
12:22AM 40.5906 -73.5923 29° Northeast 341 392 9,500 2,040 Climbing FlightAware ADS-B
12:23AM 40.6362 -73.5666 23° Northeast 358 412 10,400 1,620 Climbing FlightAware ADS-B
12:23AM 40.6864 -73.5379 23° Northeast 380 437 11,200 1,440 Climbing FlightAware ADS-B
12:24AM 40.7509 -73.5026 23° Northeast 412 474 12,100 1,680 Climbing FlightAware ADS-B
12:25AM 40.8550 -73.4400 24° Northeast 437 503 13,900 1,920 Climbing FlightAware
12:25AM 40.8734 -73.4280 26° Northeast 443 510 14,300 1,680 Climbing FlightAware ADS-B
12:26AM 40.9147 -73.3995 28° Northeast 457 526 14,800 1,320 Climbing FlightAware ADS-B
12:26AM 40.9387 -73.3822 29° Northeast 463 533 15,100 1,920 Climbing FlightAware ADS-B
12:26AM 40.9739 -73.3613 24° Northeast 463 533 15,800 2,220 Climbing FlightAware ADS-B
12:27AM 41.0471 -73.3224 22° Northeast 470 541 17,100 1,860 Climbing FlightAware ADS-B
12:27AM 41.1195 -73.2814 23° Northeast 480 552 18,100 1,740 Climbing FlightAware ADS-B
12:28AM 41.2340 -73.1610 38° Northeast 488 562 20,100 1,680 Climbing FlightAware
12:29AM 41.2910 -73.0660 51° Northeast 496 571 21,200 1,560 Climbing FlightAware
12:30AM 41.3500 -72.9600 53° Northeast 504 580 22,300 1,500 Climbing FlightAware
12:31AM 41.4134 -72.8429 54° Northeast 513 590 23,400 1,440 Climbing FlightAware ADS-B
12:31AM 41.4620 -72.7530 54° Northeast 517 595 24,300 1,260 Climbing FlightAware
12:32AM 41.5140 -72.6590 54° Northeast 526 605 25,000 720 Climbing FlightAware
12:32AM 41.5660 -72.5760 50° Northeast 528 608 25,200 120 Climbing FlightAware
12:33AM 41.6300 -72.4740 50° Northeast 528 608 25,200 1,320 Level FlightAware
12:34AM 41.6680 -72.4140 50° Northeast 27,200 2,400 Climbing FlightAware
12:34AM 41.7490 -72.2820 51° Northeast 551 634 27,700 420 Climbing FlightAware
12:35AM 41.8050 -72.1930 50° Northeast 551 634 27,700 960 Level FlightAware
12:36AM 41.8900 -72.0490 52° Northeast 564 649 29,100 1,620 Climbing FlightAware
12:36AM 41.9490 -71.9520 51° Northeast 560 644 30,000 1,380 Climbing FlightAware
12:37AM 42.0080 -71.8260 58° Northeast 554 638 31,000 1,260 Climbing FlightAware
12:38AM 42.0640 -71.6930 60° Northeast 553 636 31,800 1,140 Climbing FlightAware
12:39AM 42.1200 -71.5580 61° Northeast 551 634 32,700 780 Climbing FlightAware
12:39AM 42.1760 -71.4410 57° Northeast 546 628 33,000 180 Climbing FlightAware
12:40AM 42.2420 -71.3360 50° Northeast 549 632 33,000  Level FlightAware
12:41AM 42.3150 -71.2170 50° Northeast 543 625 33,000  Level FlightAware
12:41AM 42.3780 -71.1120 51° Northeast 548 631 33,000  Level FlightAware
12:42AM 42.4480 -70.9910 52° Northeast 547 629 33,000  Level FlightAware
12:43AM 42.5020 -70.8970 52° Northeast 548 631 33,000  Level FlightAware
12:43AM 42.5660 -70.7860 52° Northeast 548 631 33,000  Level FlightAware
12:44AM 42.6280 -70.6790 52° Northeast 547 629 33,000  Level FlightAware
12:45AM 42.6980 -70.5610 51° Northeast 548 631 33,000  Level FlightAware
12:45AM 42.7700 -70.4390 51° Northeast 548 631 33,000  Level FlightAware
12:46AM 42.8340 -70.3300 51° Northeast 549 632 33,000  Level FlightAware
12:47AM 42.9000 -70.2160 52° Northeast 550 633 33,000  Level FlightAware
12:48AM 42.9710 -70.0950 51° Northeast 551 634 33,000  Level FlightAware
12:48AM 43.0530 -69.9520 52° Northeast 550 633 33,000  Level FlightAware
12:49AM 43.1200 -69.8360 52° Northeast 549 632 33,000  Level FlightAware
12:50AM 43.1820 -69.7280 52° Northeast 549 632 33,000  Level FlightAware
12:51AM 43.2400 -69.6260 52° Northeast 549 632 33,000  Level FlightAware
12:51AM 43.3090 -69.5060 52° Northeast 549 632 33,000  Level FlightAware
12:52AM 43.3570 -69.4220 52° Northeast 549 632 33,000  Level FlightAware
12:52AM 43.4070 -69.3330 52° Northeast 549 632 33,000  Level FlightAware
12:53AM 43.4710 -69.2200 52° Northeast 549 632 33,000  Level FlightAware
12:54AM 43.5200 -69.1340 52° Northeast 549 632 33,000  Level FlightAware
12:55AM 43.6010 -68.9900 52° Northeast 549 632 33,000  Level FlightAware
12:55AM 43.6490 -68.9060 52° Northeast 549 632 33,000  Level FlightAware
12:57AM 43.7420 -68.7410 52° Northeast 549 632 33,000  Level FlightAware
12:57AM 43.7900 -68.6560 52° Northeast 549 632 33,000  Level FlightAware
12:58AM 43.8540 -68.5430 52° Northeast 549 632 33,000  Level FlightAware
12:59AM 44.0110 -68.2490 53° Northeast 566 651 33,000  Level FlightAware
12:59AM 44.0960 -68.0930 53° Northeast 564 649 33,000  Level FlightAware
01:00AM 44.1560 -67.9830 53° Northeast 565 650 33,000  Level FlightAware
01:01AM 44.2160 -67.8710 53° Northeast 565 650 33,000  Level FlightAware
01:01AM 44.2780 -67.7550 53° Northeast 565 650 33,000  Level FlightAware
01:02AM 44.3400 -67.6400 53° Northeast 566 651 33,000  Level FlightAware
01:03AM 44.4130 -67.5040 53° Northeast 565 650 33,000  Level FlightAware
01:03AM 44.4690 -67.3970 54° Northeast 564 649 33,000  Level FlightAware
01:04AM 44.5280 -67.2870 53° Northeast 563 648 33,000  Level FlightAware
01:05AM 44.5960 -67.1570 54° Northeast 563 648 33,000  Level FlightAware
01:05AM 44.6590 -67.0390 53° Northeast 564 649 33,000  Level FlightAware
01:06AM 44.7240 -66.9140 54° Northeast 564 649 33,000  Level FlightAware
01:07AM 44.7850 -66.7970 54° Northeast 566 651 33,000  Level FlightAware
01:08AM 44.8570 -66.6590 54° Northeast 566 651 33,000  Level FlightAware
01:08AM 44.9130 -66.5510 54° Northeast 568 654 33,000  Level FlightAware
01:09AM 44.9750 -66.4310 54° Northeast 569 655 33,000  Level FlightAware
01:09AM 45.0330 -66.3170 54° Northeast 569 655 33,000  Level FlightAware
01:10AM 45.1160 -66.1530 54° Northeast 570 656 33,000  Level FlightAware
01:11AM 45.1760 -66.0340 54° Northeast 571 657 33,000  Level FlightAware
01:12AM 45.2440 -65.8980 55° Northeast 571 657 33,000  Level FlightAware
01:12AM 45.3050 -65.7740 55° Northeast 572 658 33,000  Level FlightAware
01:13AM 45.3700 -65.6440 55° Northeast 573 659 33,000  Level FlightAware
01:14AM 45.4380 -65.5060 55° Northeast 574 661 33,000  Level FlightAware
01:15AM 45.4990 -65.3830 55° Northeast 574 661 33,000  Level FlightAware
01:15AM 45.5620 -65.2560 55° Northeast 575 662 33,000  Level FlightAware
01:16AM 45.6280 -65.1200 55° Northeast 576 663 33,000  Level FlightAware
01:17AM 45.6890 -64.9950 55° Northeast 578 665 33,000  Level FlightAware
01:17AM 45.7510 -64.8660 55° Northeast 578 665 33,000  Level FlightAware
01:18AM 45.8130 -64.7390 55° Northeast 578 665 33,000  Level FlightAware
01:19AM 45.8610 -64.6400 55° Northeast 578 665 33,000  Level FlightAware
01:19AM 45.9240 -64.5110 55° Northeast 578 665 33,000  Level FlightAware
01:20AM 46.0180 -64.3110 56° Northeast 580 667 33,000  Level FlightAware
01:21AM 46.0810 -64.1820 55° Northeast 580 667 33,000  Level FlightAware
01:22AM 46.1280 -64.0850 55° Northeast 580 667 33,000  Level FlightAware
01:22AM 46.1780 -63.9820 55° Northeast 580 667 33,000  Level FlightAware
01:23AM 46.2090 -63.9170 55° Northeast 580 667 33,000  Level FlightAware
01:24AM 46.2730 -63.7850 55° Northeast 580 667 33,000  Level FlightAware
01:24AM 46.3240 -63.6790 55° Northeast 580 667 33,000  Level FlightAware
01:25AM 46.3870 -63.5490 55° Northeast 580 667 33,000  Level FlightAware
01:26AM 46.4340 -63.4520 55° Northeast 580 667 33,000  Level FlightAware
01:26AM 46.4840 -63.3490 55° Northeast 580 667 33,000  Level FlightAware
01:27AM 46.5460 -63.2180 55° Northeast 580 667 33,000  Level FlightAware
01:28AM 46.5940 -63.1210 54° Northeast 580 667 33,000  Level FlightAware
01:28AM 46.7420 -62.7390 60° Northeast 579 666 33,000 300 Level FlightAware
01:29AM 46.8090 -62.5870 57° Northeast 573 659 33,500 300 Climbing FlightAware
01:30AM 46.8570 -62.4790 57° Northeast 573 659 33,500 360 Level FlightAware
01:30AM 46.9280 -62.3130 58° Northeast 585 673 34,000 300 Climbing FlightAware
01:31AM 47.0030 -62.1420 57° Northeast 584 672 34,000  Level FlightAware
01:32AM 47.0840 -61.9510 58° Northeast 581 669 34,000  Level FlightAware
01:33AM 47.1530 -61.7880 58° Northeast 580 667 34,000  Level FlightAware
01:34AM 47.2410 -61.5820 58° Northeast 580 667 34,000  Level FlightAware
01:35AM 47.3210 -61.3930 58° Northeast 581 669 34,000  Level FlightAware
01:36AM 47.3770 -61.2600 58° Northeast 581 669 34,000  Level FlightAware
01:36AM 47.4280 -61.1400 58° Northeast 582 670 34,000  Level FlightAware
01:37AM 47.5050 -60.9570 58° Northeast 583 671 34,000  Level FlightAware
01:38AM 47.5480 -60.8530 58° Northeast 583 671 34,000  Level FlightAware
01:39AM 47.5920 -60.7500 58° Northeast 583 671 34,000  Level FlightAware
01:40AM 47.6660 -60.5740 58° Northeast 583 671 34,000  Level FlightAware
01:40AM 47.7100 -60.4700 58° Northeast 583 671 34,000  Level FlightAware
01:41AM 47.7710 -60.3250 58° Northeast 583 671 34,000  Level FlightAware
01:42AM 47.8130 -60.2240 58° Northeast 583 671 34,000  Level FlightAware
01:42AM 47.8700 -60.0880 58° Northeast 583 671 34,000  Level FlightAware
01:43AM 47.9990 -59.7460 60° Northeast 597 687 34,000  Level FlightAware
01:44AM 48.0480 -59.6230 59° Northeast 598 688 34,000  Level FlightAware
01:44AM 48.1110 -59.4650 59° Northeast 599 689 34,000  Level FlightAware
01:45AM 48.1680 -59.3160 60° Northeast 600 690 34,000  Level FlightAware
01:46AM 48.2200 -59.1850 59° Northeast 602 693 34,000  Level FlightAware
01:46AM 48.2850 -59.0150 60° Northeast 602 693 34,000  Level FlightAware
01:47AM 48.3550 -58.8310 60° Northeast 604 695 34,000  Level FlightAware
01:48AM 48.4100 -58.6850 60° Northeast 606 697 34,000  Level FlightAware
01:49AM 48.4660 -58.5350 61° Northeast 609 701 34,000  Level FlightAware
01:49AM 48.5290 -58.3690 60° Northeast 610 702 34,000  Level FlightAware
01:50AM 48.5810 -58.2310 60° Northeast 610 702 34,000  Level FlightAware
01:51AM 48.6240 -58.1180 60° Northeast 610 702 34,000  Level FlightAware
01:52AM 48.6820 -57.9670 60° Northeast 610 702 34,000  Level FlightAware
01:52AM 48.7260 -57.8510 60° Northeast 610 702 34,000  Level FlightAware
01:53AM 48.7690 -57.7370 60° Northeast 610 702 34,000  Level FlightAware
01:54AM 48.8290 -57.5790 60° Northeast 610 702 34,000  Level FlightAware
01:54AM 48.9040 -57.2920 68° East 619 712 34,000  Level FlightAware
01:55AM 48.9460 -57.1640 63° Northeast 619 712 34,000  Level FlightAware
01:56AM 49.0100 -56.9700 63° Northeast 621 715 34,000  Level FlightAware
01:56AM 49.0510 -56.8470 63° Northeast 621 715 34,000  Level FlightAware
01:57AM 49.1050 -56.6880 63° Northeast 621 715 34,000  Level FlightAware
01:58AM 49.1440 -56.5680 64° Northeast 621 715 34,000  Level FlightAware
01:58AM 49.1980 -56.4080 63° Northeast 621 715 34,000  Level FlightAware
01:59AM 49.2390 -56.2850 63° Northeast 621 715 34,000  Level FlightAware
02:00AM 49.2800 -56.1620 63° Northeast 621 715 34,000  Level FlightAware
02:00AM 49.3340 -55.9980 63° Northeast 621 715 34,000  Level FlightAware
02:01AM 49.3740 -55.8780 63° Northeast 621 715 34,000  Level FlightAware
02:02AM 49.4270 -55.7170 63° Northeast 621 715 34,000  Level FlightAware
02:02AM 49.4670 -55.5970 63° Northeast 621 715 34,000  Level FlightAware
02:03AM 49.5180 -55.4430 63° Northeast 621 715 34,000  Level FlightAware
02:04AM 49.5860 -55.2380 63° Northeast 621 715 34,000  Level FlightAware
02:05AM 49.6270 -55.1140 63° Northeast 621 715 34,000  Level FlightAware
02:05AM 49.6680 -54.9890 63° Northeast 621 715 34,000  Level FlightAware
02:07AM 49.8870 -54.1550 68° East 635 731 34,000  Level FlightAware
02:08AM 49.9420 -53.9700 65° Northeast 635 731 34,000  Level FlightAware
02:09AM 50.0030 -53.7560 66° East 635 731 34,000  Level FlightAware
02:10AM 50.0530 -53.5830 66° East 636 732 34,000  Level FlightAware
02:10AM 50.0910 -53.4560 65° Northeast 636 732 34,000  Level FlightAware
02:11AM 50.1440 -53.2790 65° Northeast 636 732 34,000  Level FlightAware
02:12AM 50.2000 -53.0600 68° East 637 733 34,000  Level FlightAware
02:12AM 50.2500 -52.8850 66° East 637 733 34,000  Level FlightAware
02:13AM 50.3080 -52.6760 66° East 637 733 34,000  Level FlightAware
02:14AM 50.3520 -52.5190 66° East 637 733 34,000  Level FlightAware
02:14AM 50.3900 -52.3860 66° East 637 733 34,000  Level FlightAware
02:15AM 50.4510 -52.1700 66° East 637 733 34,000  Level FlightAware
02:16AM 50.4860 -52.0480 66° East 637 733 34,000  Level FlightAware
02:17AM 50.5350 -51.8750 66° East 637 733 34,000  Level FlightAware
02:17AM 50.5710 -51.7460 66° East 637 733 34,000  Level FlightAware
02:18AM 50.6200 -51.5730 66° East 637 733 34,000  Level FlightAware
02:19AM 50.6550 -51.4500 66° East 637 733 34,000  Level FlightAware
02:20AM 50.7050 -51.2730 66° East 637 733 34,000  Level FlightAware
02:20AM 50.7410 -51.1430 66° East 637 733 34,000  Level FlightAware
02:21AM 50.7890 -50.9730 66° East 637 733 34,000  Level FlightAware
02:22AM 50.8380 -50.7990 66° East 637 733 34,000  Level FlightAware
02:22AM 50.8770 -50.6610 66° East 637 733 34,000  Level FlightAware
02:23AM 50.9130 -50.5300 66° East 637 733 34,000  Level FlightAware
02:24AM 50.9833 -49.9333 66° East 630 725 34,000  Level Gander Center
02:24AM 51.0000 -49.7667 81° East 640 736 34,000  Level Gander Center
02:25AM 51.0000 -50.0000 77° East 581 669 34,000  Level ETMS Enhanced Traffic Management System
02:25AM 51.0500 -49.5000 77° East 640 736 34,000  Level Gander Center
02:26AM 51.0833 -49.2333 79° East 650 748 34,000  Level Gander Center
02:29AM 51.1485 -48.7645 77° East  Level FlightAware Approximate
02:36AM 51.3651 -47.0855 78° East  Level FlightAware Approximate
02:37AM 51.3941 -46.8444 79° East  Level FlightAware Approximate
02:38AM 51.4226 -46.6029 79° East  Level FlightAware Approximate
02:39AM 51.4506 -46.3612 79° East  Level FlightAware Approximate
02:40AM 51.4781 -46.1192 80° East  Level FlightAware Approximate
02:41AM 51.5051 -45.8769 80° East  Level FlightAware Approximate
02:42AM 51.5316 -45.6343 80° East  Level FlightAware Approximate
02:43AM 51.5575 -45.3914 80° East  Level FlightAware Approximate
02:44AM 51.5830 -45.1483 80° East  Level FlightAware Approximate
02:45AM 51.6080 -44.9048 81° East  Level FlightAware Approximate
02:46AM 51.6325 -44.6611 81° East  Level FlightAware Approximate
02:47AM 51.6565 -44.4172 81° East  Level FlightAware Approximate
02:48AM 51.6800 -44.1730 81° East  Level FlightAware Approximate
02:49AM 51.7029 -43.9285 81° East  Level FlightAware Approximate
02:50AM 51.7254 -43.6838 81° East  Level FlightAware Approximate
02:51AM 51.7473 -43.4389 82° East  Level FlightAware Approximate
02:52AM 51.7688 -43.1937 82° East  Level FlightAware Approximate
02:53AM 51.7897 -42.9483 82° East  Level FlightAware Approximate
02:54AM 51.8101 -42.7027 82° East  Level FlightAware Approximate
02:55AM 51.8300 -42.4568 82° East  Level FlightAware Approximate
02:56AM 51.8494 -42.2108 83° East  Level FlightAware Approximate
02:57AM 51.8683 -41.9645 83° East  Level FlightAware Approximate
02:58AM 51.8867 -41.7180 83° East  Level FlightAware Approximate
02:59AM 51.9045 -41.4714 83° East  Level FlightAware Approximate
03:00AM 51.9218 -41.2245 83° East  Level FlightAware Approximate
03:01AM 51.9387 -40.9774 84° East  Level FlightAware Approximate
03:02AM 51.9550 -40.7302 84° East  Level FlightAware Approximate
03:03AM 51.9707 -40.4828 84° East  Level FlightAware Approximate
03:03AM 52.0000 -40.0000 86° East 567 652 34,000  Level ETMS Enhanced Traffic Management System
03:04AM 51.9860 -40.2352 84° East  Level FlightAware Approximate
03:05AM 52.0005 -39.9874 86° East  Level FlightAware Approximate
03:06AM 52.0108 -39.7390 86° East  Level FlightAware Approximate
03:07AM 52.0205 -39.4905 86° East  Level FlightAware Approximate
03:08AM 52.0297 -39.2418 86° East  Level FlightAware Approximate
03:09AM 52.0752 -37.6953 88° East 567 652 34,000  Level FlightAware Transoceanic
03:10AM 52.0808 -37.4388 88° East 567 652 34,000  Level FlightAware Transoceanic
03:11AM 52.0858 -37.1823 88° East 567 652 34,000  Level FlightAware Transoceanic
03:12AM 52.0902 -36.9257 88° East 567 652 34,000  Level FlightAware Transoceanic
03:13AM 52.0941 -36.6690 89° East 567 652 34,000  Level FlightAware Transoceanic
03:14AM 52.0975 -36.4123 89° East 567 652 34,000  Level FlightAware Transoceanic
03:15AM 52.1003 -36.1556 89° East 567 652 34,000  Level FlightAware Transoceanic
03:16AM 52.1025 -35.8988 89° East 567 652 34,000  Level FlightAware Transoceanic
03:17AM 52.1042 -35.6420 89° East 567 652 34,000  Level FlightAware Transoceanic
03:18AM 52.1053 -35.3852 90° East 567 652 34,000  Level FlightAware Transoceanic
03:19AM 52.1059 -35.1284 90° East 567 652 34,000  Level FlightAware Transoceanic
03:20AM 52.1059 -34.8716 90° East 567 652 34,000  Level FlightAware Transoceanic
03:21AM 52.1053 -34.6148 90° East 567 652 34,000  Level FlightAware Transoceanic
03:22AM 52.1042 -34.3580 91° East 567 652 34,000  Level FlightAware Transoceanic
03:23AM 52.1025 -34.1012 91° East 567 652 34,000  Level FlightAware Transoceanic
03:24AM 52.1003 -33.8444 91° East 567 652 34,000  Level FlightAware Transoceanic
03:25AM 52.0975 -33.5877 91° East 567 652 34,000  Level FlightAware Transoceanic
03:26AM 52.0941 -33.3310 91° East 567 652 34,000  Level FlightAware Transoceanic
03:27AM 52.0902 -33.0743 92° East 567 652 34,000  Level FlightAware Transoceanic
03:28AM 52.0858 -32.8177 92° East 567 652 34,000  Level FlightAware Transoceanic
03:29AM 52.0808 -32.5612 92° East 567 652 34,000  Level FlightAware Transoceanic
03:30AM 52.0752 -32.3047 92° East 567 652 34,000  Level FlightAware Transoceanic
03:31AM 52.0690 -32.0482 92° East 567 652 34,000  Level FlightAware Transoceanic
03:32AM 52.0624 -31.7919 93° East 567 652 34,000  Level FlightAware Transoceanic
03:33AM 52.0551 -31.5356 93° East 567 652 34,000  Level FlightAware Transoceanic
03:34AM 52.0473 -31.2794 93° East 567 652 34,000  Level FlightAware Transoceanic
03:35AM 52.0390 -31.0233 93° East 567 652 34,000  Level FlightAware Transoceanic
03:36AM 52.0301 -30.7673 93° East 567 652 34,000  Level FlightAware Transoceanic
03:37AM 52.0206 -30.5114 94° East 567 652 34,000  Level FlightAware Transoceanic
03:38AM 52.0106 -30.2557 94° East 567 652 34,000  Level FlightAware Transoceanic
03:39AM 52.0003 -30.0072 94° East  Level FlightAware Approximate
03:40AM 51.9894 -29.7589 94° East  Level FlightAware Approximate
03:41AM 52.0085 -29.7660 87° East  Level FlightAware Approximate
03:41AM 52.0000 -30.0000 86° East 567 652 34,000  Level ETMS Enhanced Traffic Management System
03:42AM 52.0169 -29.5205 87° East  Level FlightAware Approximate
03:43AM 52.0248 -29.2750 87° East  Level FlightAware Approximate
03:44AM 52.0322 -29.0294 87° East  Level FlightAware Approximate
03:45AM 52.0391 -28.7836 87° East  Level FlightAware Approximate
03:46AM 52.0454 -28.5379 87° East  Level FlightAware Approximate
03:47AM 52.0752 -27.6953 88° East 567 652 34,000  Level FlightAware Transoceanic
03:48AM 52.0808 -27.4388 88° East 567 652 34,000  Level FlightAware Transoceanic
03:49AM 52.0858 -27.1823 88° East 567 652 34,000  Level FlightAware Transoceanic
03:50AM 52.0902 -26.9257 88° East 567 652 34,000  Level FlightAware Transoceanic
03:51AM 52.0941 -26.6690 89° East 567 652 34,000  Level FlightAware Transoceanic
03:52AM 52.0975 -26.4123 89° East 567 652 34,000  Level FlightAware Transoceanic
03:53AM 52.1003 -26.1556 89° East 567 652 34,000  Level FlightAware Transoceanic
03:54AM 52.1025 -25.8988 89° East 567 652 34,000  Level FlightAware Transoceanic
03:55AM 52.1042 -25.6420 89° East 567 652 34,000  Level FlightAware Transoceanic
03:56AM 52.1053 -25.3852 90° East 567 652 34,000  Level FlightAware Transoceanic
03:57AM 52.1059 -25.1284 90° East 567 652 34,000  Level FlightAware Transoceanic
03:58AM 52.1059 -24.8716 90° East 567 652 34,000  Level FlightAware Transoceanic
03:59AM 52.1053 -24.6148 90° East 567 652 34,000  Level FlightAware Transoceanic
04:00AM 52.1042 -24.3580 91° East 567 652 34,000  Level FlightAware Transoceanic
04:01AM 52.1025 -24.1012 91° East 567 652 34,000  Level FlightAware Transoceanic
04:02AM 52.1003 -23.8444 91° East 567 652 34,000  Level FlightAware Transoceanic
04:03AM 52.0975 -23.5877 91° East 567 652 34,000  Level FlightAware Transoceanic
04:04AM 52.0941 -23.3310 91° East 567 652 34,000  Level FlightAware Transoceanic
04:05AM 52.0902 -23.0743 92° East 567 652 34,000  Level FlightAware Transoceanic
04:06AM 52.0858 -22.8177 92° East 567 652 34,000  Level FlightAware Transoceanic
04:07AM 52.0808 -22.5612 92° East 567 652 34,000  Level FlightAware Transoceanic
04:08AM 52.0752 -22.3047 92° East 567 652 34,000  Level FlightAware Transoceanic
04:09AM 52.0690 -22.0482 92° East 567 652 34,000  Level FlightAware Transoceanic
04:10AM 52.0624 -21.7919 93° East 567 652 34,000  Level FlightAware Transoceanic
04:11AM 52.0551 -21.5356 93° East 567 652 34,000  Level FlightAware Transoceanic
04:12AM 52.0473 -21.2794 93° East 567 652 34,000  Level FlightAware Transoceanic
04:13AM 52.0390 -21.0233 93° East 567 652 34,000  Level FlightAware Transoceanic
04:14AM 52.0301 -20.7673 93° East 567 652 34,000  Level FlightAware Transoceanic
04:15AM 52.0206 -20.5114 94° East 567 652 34,000  Level FlightAware Transoceanic
04:16AM 52.0106 -20.2557 94° East 567 652 34,000  Level FlightAware Transoceanic
04:17AM 52.0004 -20.0104 94° East  Level FlightAware Approximate
04:18AM 51.9898 -19.7653 94° East  Level FlightAware Approximate
04:19AM 52.0083 -19.7755 86° East  Level FlightAware Approximate
04:20AM 52.0169 -19.5301 87° East  Level FlightAware Approximate
04:21AM 52.0249 -19.2845 87° East  Level FlightAware Approximate
04:22AM 52.0325 -19.0389 87° East  Level FlightAware Approximate
04:23AM 52.0395 -18.7932 87° East  Level FlightAware Approximate
04:24AM 52.0461 -18.5474 87° East  Level FlightAware Approximate
04:25AM 52.0521 -18.3016 88° East  Level FlightAware Approximate
04:26AM 52.0576 -18.0557 88° East  Level FlightAware Approximate
04:27AM 52.0626 -17.8097 88° East  Level FlightAware Approximate
04:28AM 52.0671 -17.5637 88° East  Level FlightAware Approximate
04:29AM 52.0710 -17.3177 88° East  Level FlightAware Approximate
04:30AM 52.0745 -17.0716 89° East  Level FlightAware Approximate
04:31AM 52.0775 -16.8254 89° East  Level FlightAware Approximate
04:32AM 52.0799 -16.5793 89° East  Level FlightAware Approximate
04:33AM 52.0818 -16.3331 89° East  Level FlightAware Approximate
04:34AM 52.0832 -16.0869 89° East  Level FlightAware Approximate
04:35AM 52.0841 -15.8406 90° East  Level FlightAware Approximate
04:36AM 52.0845 -15.5944 90° East  Level FlightAware Approximate
04:37AM 52.0844 -15.3482 90° East  Level FlightAware Approximate
04:38AM 52.0838 -15.1019 90° East  Level FlightAware Approximate
04:39AM 52.0830 -14.8557 90° East  Level FlightAware Approximate
04:40AM 52.0820 -14.6095 90° East  Level FlightAware Approximate
04:41AM 52.0806 -14.3633 90° East  Level FlightAware Approximate
04:42AM 52.0785 -14.1172 91° East  Level FlightAware Approximate
04:43AM 52.0760 -13.8710 91° East  Level FlightAware Approximate
04:44AM 52.0730 -13.6249 91° East  Level FlightAware Approximate
04:45AM 52.0695 -13.3788 91° East  Level FlightAware Approximate
04:46AM 52.0654 -13.1327 91° East  Level FlightAware Approximate
04:47AM 52.0609 -12.8867 92° East  Level FlightAware Approximate
04:47AM 51.9920 -11.6240 92° East 571 657 35,000  Level FlightAware
04:48AM 52.0558 -12.6408 92° East  Level FlightAware Approximate
04:48AM 51.9880 -11.4420 92° East 571 657 35,000  Level FlightAware
04:48AM 51.9850 -11.3040 92° East 571 657 35,000  Level FlightAware
04:49AM 51.9800 -11.0990 92° East 571 657 35,000  Level FlightAware
04:50AM 51.9750 -10.9340 93° East 571 657 35,000  Level FlightAware
04:51AM 51.9700 -10.7240 92° East 572 658 35,000  Level FlightAware
04:51AM 51.9640 -10.5360 93° East 572 658 35,000  Level FlightAware
04:52AM 51.9580 -10.3500 93° East 571 657 35,000  Level FlightAware
04:52AM 51.9540 -10.2280 93° East 571 657 35,000  Level FlightAware
04:53AM 51.9480 -10.0500 93° East 571 657 35,000  Level FlightAware
04:54AM 51.9420 -9.8670 93° East 570 656 35,000  Level FlightAware
04:54AM 51.9370 -9.7400 94° East 569 655 35,000  Level FlightAware
04:55AM 51.9300 -9.5380 93° East 567 652 35,000  Level FlightAware
04:56AM 51.9230 -9.3490 93° East 565 650 35,000  Level FlightAware
04:57AM 51.9170 -9.2020 94° East 563 648 35,000  Level FlightAware
04:57AM 51.9090 -9.0150 94° East 561 646 35,000  Level FlightAware
04:58AM 51.9020 -8.8390 94° East 560 644 35,000  Level FlightAware
04:59AM 51.8940 -8.6630 94° East 561 646 35,000  Level FlightAware
04:59AM 51.8870 -8.5070 94° East 561 646 35,000  Level FlightAware
05:00AM 51.8790 -8.3380 94° East 561 646 35,000  Level FlightAware
05:01AM 51.8700 -8.1620 95° East 560 644 35,000  Level FlightAware
05:01AM 51.8620 -8.0130 95° East 560 644 35,000  Level FlightAware
05:02AM 51.8550 -7.8660 94° East 557 641 35,000  Level FlightAware
05:03AM 51.8440 -7.6620 95° East 556 640 35,000  Level FlightAware
05:03AM 51.8360 -7.5100 95° East 554 638 35,000  Level FlightAware
05:04AM 51.8250 -7.3170 95° East 552 635 35,000  Level FlightAware
05:05AM 51.8140 -7.1260 95° East 552 635 35,000  Level FlightAware
05:05AM 51.8050 -6.9630 95° East 551 634 35,000  Level FlightAware
05:06AM 51.7960 -6.8160 96° East 551 634 35,000  Level FlightAware
05:07AM 51.7860 -6.6440 95° East 549 632 35,000  Level FlightAware
05:07AM 51.7760 -6.4720 95° East 547 629 35,000  Level FlightAware
05:08AM 51.7700 -6.3260 94° East 547 629 35,000  Level FlightAware
05:09AM 51.7640 -6.1620 93° East 545 627 35,000  Level FlightAware
05:09AM 51.7570 -5.9840 94° East 546 628 35,000  Level FlightAware
05:10AM 51.7510 -5.8310 94° East 547 629 35,000  Level FlightAware
05:11AM 51.7460 -5.7180 94° East 547 629 35,000  Level FlightAware
05:12AM 51.7370 -5.5010 94° East 545 627 35,000  Level FlightAware
05:12AM 51.7290 -5.3240 94° East 543 625 35,000  Level FlightAware
05:13AM 51.7210 -5.1430 94° East 544 626 35,000  Level FlightAware
05:14AM 51.7130 -4.9800 94° East 543 625 35,000  Level FlightAware
05:14AM 51.7040 -4.8020 95° East 543 625 35,000  Level FlightAware
05:15AM 51.6960 -4.6410 95° East 544 626 35,000  Level FlightAware
05:16AM 51.6860 -4.4620 95° East 543 625 35,000  Level FlightAware
05:16AM 51.6760 -4.2870 95° East 542 624 35,000  Level FlightAware
05:17AM 51.6670 -4.1420 96° East 542 624 35,000  Level FlightAware
05:18AM 51.6550 -3.9510 96° East 541 623 35,000  Level FlightAware
05:19AM 51.6450 -3.7920 96° East 541 623 35,000  Level FlightAware
05:19AM 51.6330 -3.6110 96° East 542 624 35,000  Level FlightAware
05:20AM 51.6220 -3.4540 96° East 542 624 35,000  Level FlightAware
05:20AM 51.6171 -3.3846 96° East 542 624 35,000  Level FlightAware ADS-B
05:21AM 51.6103 -3.2644 95° East 542 624 35,000  Level FlightAware ADS-B
05:21AM 51.6036 -3.1435 95° East 541 623 35,000  Level FlightAware ADS-B
05:22AM 51.5947 -2.9931 95° East 541 623 35,000  Level FlightAware ADS-B
05:22AM 51.5873 -2.8710 96° East 541 623 35,000  Level FlightAware ADS-B
05:23AM 51.5790 -2.7439 96° East 540 621 35,000  Level FlightAware ADS-B
05:23AM 51.5706 -2.6199 96° East 540 621 35,000  Level FlightAware ADS-B
05:24AM 51.5622 -2.4934 96° East 539 620 35,000  Level FlightAware ADS-B
05:24AM 51.5538 -2.3729 96° East 537 618 35,000  Level FlightAware ADS-B
05:25AM 51.5456 -2.2528 96° East 536 617 35,000  Level FlightAware ADS-B
05:25AM 51.5373 -2.1336 96° East 533 613 35,000  Level FlightAware ADS-B
05:26AM 51.5287 -2.0141 97° East 531 611 35,000  Level FlightAware ADS-B
05:26AM 51.5202 -1.8956 97° East 529 609 35,000  Level FlightAware ADS-B
05:27AM 51.5116 -1.7783 97° East 528 608 35,000  Level FlightAware ADS-B
05:28AM 51.5025 -1.6575 97° East 528 608 35,000  Level FlightAware ADS-B
05:28AM 51.4936 -1.5366 97° East 528 608 35,000  Level FlightAware ADS-B
05:29AM 51.4846 -1.4187 97° East 529 609 35,000  Level FlightAware ADS-B
05:29AM 51.4757 -1.3018 97° East 529 609 35,000  Level FlightAware ADS-B
05:30AM 51.4664 -1.1834 97° East 528 608 35,000  Level FlightAware ADS-B
05:30AM 51.4566 -1.0600 97° East 528 608 35,000  Level FlightAware ADS-B
05:31AM 51.4465 -0.9358 97° East 527 606 35,000  Level FlightAware ADS-B
05:31AM 51.4369 -0.8165 97° East 526 605 35,000  Level FlightAware ADS-B
05:32AM 51.4273 -0.6987 97° East 524 603 35,000  Level FlightAware ADS-B
05:32AM 51.4175 -0.5818 98° East 524 603 35,000  Level FlightAware ADS-B
05:33AM 51.4075 -0.4646 98° East 523 602 35,000  Level FlightAware ADS-B
05:33AM 51.3976 -0.3472 98° East 523 602 35,000  Level FlightAware ADS-B
05:34AM 51.3874 -0.2289 98° East 522 601 35,000  Level FlightAware ADS-B
05:34AM 51.3763 -0.1026 98° East 522 601 35,000  Level FlightAware ADS-B
05:35AM 51.3660 0.0143 98° East 522 601 35,000  Level FlightAware ADS-B
05:35AM 51.3555 0.1315 98° East 522 601 35,000  Level FlightAware ADS-B
05:36AM 51.3442 0.2530 98° East 523 602 35,000  Level FlightAware ADS-B
05:36AM 51.3319 0.3836 99° East 524 603 35,000  Level FlightAware ADS-B
05:37AM 51.3174 0.5347 99° East 522 601 35,000  Level FlightAware ADS-B
05:38AM 51.3061 0.6521 99° East 521 600 35,000  Level FlightAware ADS-B
05:38AM 51.2947 0.7688 99° East 520 598 35,000  Level FlightAware ADS-B
05:39AM 51.2822 0.8972 99° East 519 597 35,000  Level FlightAware ADS-B
05:39AM 51.2692 1.0294 99° East 518 596 35,000  Level FlightAware ADS-B
05:40AM 51.2456 1.2387 99° East 492 566 35,000  Level FlightAware UK
05:40AM 51.2390 1.3060 99° East 516 594 35,000  Level FlightAware
05:41AM 51.2140 1.4710 104° East 517 595 35,000  Level FlightAware
05:42AM 51.1890 1.6350 104° East 518 596 35,000  Level FlightAware
05:43AM 51.1700 1.7630 103° East 520 598 35,000  Level FlightAware
05:43AM 51.1460 1.9320 103° East 522 601 35,000  Level FlightAware
05:44AM 51.1240 2.0790 103° East 523 602 35,000  Level FlightAware
05:45AM 51.0960 2.2590 104° East 525 604 35,000  Level FlightAware
05:45AM 51.0762 2.3616 104° East 498 573 35,000  Level FlightAware UK
05:45AM 51.0730 2.4070 104° East 526 605 35,000  Level FlightAware
05:46AM 51.0520 2.5400 104° East 527 606 35,000  Level FlightAware
05:47AM 51.0196 2.7236 104° East 494 568 35,000  Level FlightAware UK
05:47AM 51.0150 2.7790 104° East 525 604 35,000  Level FlightAware
05:48AM 50.9930 2.9220 104° East 526 605 35,000  Level FlightAware
05:48AM 50.9710 3.0600 104° East 528 608 35,000  Level FlightAware
05:49AM 50.9446 3.1981 104° East 494 568 35,000  Level FlightAware UK
05:49AM 50.9420 3.2350 104° East 531 611 35,000  Level FlightAware
05:50AM 50.9190 3.3800 104° East 533 613 35,000  Level FlightAware
05:50AM 50.8940 3.5240 105° East 534 615 35,000 300 Level FlightAware
05:51AM 50.8610 3.7170 105° East 532 612 35,500 960 Climbing FlightAware
05:52AM 50.8330 3.8790 105° East 525 604 36,600 1,080 Climbing FlightAware
05:53AM 50.8080 4.0270 105° East 527 606 37,000 300 Climbing FlightAware
05:53AM 50.7835 4.1449 105° East 494 568 37,000  Level FlightAware UK
05:53AM 50.7780 4.1970 105° East 525 604 37,000  Level FlightAware
05:54AM 50.7510 4.3520 105° East 524 603 37,000  Level FlightAware
05:55AM 50.7280 4.4820 106° East 524 603 37,000  Level FlightAware
05:55AM 50.6970 4.6540 106° East 522 601 37,000  Level FlightAware
05:56AM 50.6700 4.8030 106° East 523 602 37,000  Level FlightAware
05:57AM 50.6390 4.9690 106° East 524 603 37,000  Level FlightAware
05:58AM 50.5880 5.1050 121° Southeast 522 601 37,000  Level FlightAware
05:58AM 50.5300 5.2320 126° Southeast 522 601 37,000  Level FlightAware
05:59AM 50.4720 5.3660 124° Southeast 520 598 37,000  Level FlightAware
06:00AM 50.4200 5.4920 123° Southeast 519 597 37,000  Level FlightAware
06:00AM 50.3610 5.6300 124° Southeast 517 595 37,000  Level FlightAware
06:01AM 50.3070 5.7490 125° Southeast 517 595 37,000  Level FlightAware
06:02AM 50.2530 5.8670 126° Southeast 516 594 37,000  Level FlightAware
06:02AM 50.1970 5.9890 126° Southeast 514 592 37,000  Level FlightAware
06:03AM 50.1390 6.1150 126° Southeast 514 592 37,000  Level FlightAware
06:04AM 50.0790 6.2490 125° Southeast 512 589 37,000  Level FlightAware
06:04AM 50.0230 6.3690 126° Southeast 510 587 37,000  Level FlightAware
06:05AM 49.9630 6.5000 125° Southeast 510 587 37,000  Level FlightAware
06:06AM 49.9130 6.6050 126° Southeast 509 586 37,000  Level FlightAware
06:07AM 49.8470 6.7480 126° Southeast 510 587 37,000  Level FlightAware
06:07AM 49.7940 6.8610 126° Southeast 509 586 37,000  Level FlightAware
06:08AM 49.7290 7.0010 126° Southeast 509 586 37,000  Level FlightAware
06:09AM 49.6740 7.1170 126° Southeast 508 585 37,000  Level FlightAware
06:09AM 49.6180 7.2340 126° Southeast 508 585 37,000  Level FlightAware
06:10AM 49.5540 7.3690 126° Southeast 508 585 37,000  Level FlightAware
06:11AM 49.4780 7.5270 126° Southeast 507 583 37,000  Level FlightAware
06:12AM 49.4300 7.6260 127° Southeast 507 583 37,000  Level FlightAware
06:12AM 49.3730 7.7460 126° Southeast 508 585 37,000  Level FlightAware
06:13AM 49.3120 7.8710 127° Southeast 509 586 37,000  Level FlightAware
06:13AM 49.2640 7.9670 127° Southeast 510 587 37,000  Level FlightAware
06:14AM 49.2040 8.0900 127° Southeast 509 586 37,000  Level FlightAware
06:15AM 49.1550 8.1890 127° Southeast 509 586 37,000  Level FlightAware
06:16AM 49.0880 8.3240 127° Southeast 508 585 37,000  Level FlightAware
06:16AM 49.0310 8.4370 128° Southeast 507 583 37,000  Level FlightAware
06:17AM 48.9660 8.5660 127° Southeast 507 583 37,000  Level FlightAware
06:18AM 48.9080 8.6820 127° Southeast 508 585 37,000  Level FlightAware
06:18AM 48.8380 8.8000 132° Southeast 506 582 37,000  Level FlightAware
06:19AM 48.7660 8.8880 141° Southeast 506 582 37,000  Level FlightAware
06:20AM 48.6820 8.9840 143° Southeast 505 581 37,000  Level FlightAware
06:21AM 48.6090 9.0670 143° Southeast 505 581 37,000  Level FlightAware
06:21AM 48.5250 9.1620 143° Southeast 505 581 37,000  Level FlightAware
06:22AM 48.4490 9.2470 143° Southeast 506 582 37,000  Level FlightAware
06:23AM 48.3790 9.3250 143° Southeast 507 583 37,000  Level FlightAware
06:23AM 48.2920 9.4220 143° Southeast 488 562 37,000  Level FlightAware
06:24AM 48.2280 9.4960 142° Southeast 493 567 37,000  Level FlightAware
06:25AM 48.1480 9.5900 142° Southeast 492 566 37,000  Level FlightAware
06:25AM 48.0850 9.6640 142° Southeast 492 566 37,000  Level FlightAware
06:26AM 48.0040 9.7580 142° Southeast 493 567 37,000  Level FlightAware
06:27AM 47.9430 9.8290 142° Southeast 494 568 37,000  Level FlightAware
06:27AM 47.8650 9.9190 142° Southeast 489 563 37,000  Level FlightAware
06:28AM 47.7990 9.9960 142° Southeast 490 564 37,000  Level FlightAware
06:29AM 47.6830 10.1270 143° Southeast 494 568 37,000  Level FlightAware
06:30AM 47.6190 10.2000 142° Southeast 494 568 37,000  Level FlightAware
06:30AM 47.5370 10.2930 143° Southeast 502 578 37,000  Level FlightAware
06:31AM 47.4620 10.3780 143° Southeast 501 577 37,000  Level FlightAware
06:32AM 47.3890 10.4610 142° Southeast 493 567 37,000  Level FlightAware
06:32AM 47.2990 10.5620 143° Southeast 494 568 37,000  Level FlightAware
06:33AM 47.2140 10.6580 142° Southeast 499 574 37,000  Level FlightAware
06:34AM 47.1320 10.7490 143° Southeast 499 574 37,000  Level FlightAware
06:35AM 47.0590 10.8310 143° Southeast 497 572 37,000  Level FlightAware
06:35AM 46.9900 10.9240 137° Southeast 502 578 37,000  Level FlightAware
06:36AM 46.9250 11.0230 134° Southeast 503 579 37,000  Level FlightAware
06:37AM 46.8550 11.1280 134° Southeast 503 579 37,000  Level FlightAware
06:37AM 46.7780 11.2440 134° Southeast 516 594 37,000  Level FlightAware
06:38AM 46.7250 11.3230 134° Southeast 521 600 37,000  Level FlightAware
06:39AM 46.6710 11.4040 134° Southeast 522 601 37,000  Level FlightAware
06:39AM 46.5950 11.5160 135° Southeast 522 601 37,000  Level FlightAware
06:40AM 46.5170 11.6320 134° Southeast 523 602 37,000  Level FlightAware
06:41AM 46.4490 11.7310 135° Southeast 523 602 37,000  Level FlightAware
06:41AM 46.3810 11.8300 135° Southeast 523 602 37,000  Level FlightAware
06:42AM 46.3040 11.9430 135° Southeast 523 602 37,000  Level FlightAware
06:43AM 46.2470 12.0270 134° Southeast 520 598 37,000  Level FlightAware
06:43AM 46.1750 12.1310 135° Southeast 518 596 37,000  Level FlightAware
06:44AM 46.0940 12.2480 135° Southeast 516 594 37,000  Level FlightAware
06:45AM 46.0260 12.3450 135° Southeast 516 594 37,000  Level FlightAware
06:46AM 45.9620 12.4370 135° Southeast 510 587 37,000  Level FlightAware
06:46AM 45.8950 12.5330 135° Southeast 509 586 37,000  Level FlightAware
06:47AM 45.8330 12.6220 135° Southeast 516 594 37,000  Level FlightAware
06:48AM 45.7510 12.7370 136° Southeast 516 594 37,000  Level FlightAware
06:48AM 45.6950 12.8160 135° Southeast 516 594 37,000  Level FlightAware
06:49AM 45.6130 12.9320 135° Southeast 516 594 37,000  Level FlightAware
06:50AM 45.5460 13.0260 135° Southeast 516 594 37,000  Level FlightAware
06:51AM 45.4520 13.1560 136° Southeast 516 594 37,000  Level FlightAware
06:51AM 45.3840 13.2510 136° Southeast 514 592 37,000  Level FlightAware
06:52AM 45.3080 13.3570 136° Southeast 514 592 37,000  Level FlightAware
06:53AM 45.2470 13.4660 128° Southeast 519 597 37,000  Level FlightAware
06:53AM 45.1920 13.5780 125° Southeast 523 602 37,000  Level FlightAware
06:54AM 45.1370 13.6850 126° Southeast 522 601 37,000  Level FlightAware
06:55AM 45.0720 13.8080 127° Southeast 517 595 37,000  Level FlightAware
06:55AM 45.0150 13.9130 127° Southeast 521 600 37,000  Level FlightAware
06:56AM 44.9410 14.0480 128° Southeast 521 600 37,000  Level FlightAware
06:57AM 44.8910 14.1410 127° Southeast 517 595 37,000  Level FlightAware
06:57AM 44.8380 14.2420 126° Southeast 518 596 37,000  Level FlightAware
06:58AM 44.7690 14.3740 126° Southeast 523 602 37,000  Level FlightAware
06:59AM 44.6890 14.5240 127° Southeast 518 596 37,000  Level FlightAware
07:00AM 44.6310 14.6350 126° Southeast 517 595 37,000  Level FlightAware
07:00AM 44.5810 14.7280 127° Southeast 521 600 37,000  Level FlightAware
07:01AM 44.5060 14.8700 126° Southeast 519 597 37,000  Level FlightAware
07:02AM 44.4320 15.0070 127° Southeast 512 589 37,000  Level FlightAware
07:03AM 44.3760 15.1110 127° Southeast 510 587 37,000  Level FlightAware
07:03AM 44.3330 15.1890 128° Southeast 510 587 37,000  Level FlightAware
07:04AM 44.2540 15.3340 127° Southeast 510 587 37,000  Level FlightAware
07:05AM 44.2000 15.4330 127° Southeast 511 588 37,000  Level FlightAware
07:06AM 44.1300 15.5560 128° Southeast 512 589 37,000  Level FlightAware
07:06AM 44.0720 15.6530 130° Southeast 513 590 37,000  Level FlightAware
07:07AM 44.0020 15.7720 129° Southeast 513 590 37,000  Level FlightAware
07:08AM 43.9440 15.8700 129° Southeast 515 593 37,000  Level FlightAware
07:08AM 43.8910 15.9600 129° Southeast 516 594 37,000  Level FlightAware
07:09AM 43.8060 16.1050 129° Southeast 515 593 37,000  Level FlightAware
07:10AM 43.7390 16.2190 129° Southeast 510 587 37,000  Level FlightAware
07:10AM 43.6920 16.2990 129° Southeast 510 587 37,000  Level FlightAware
07:11AM 43.6250 16.4100 130° Southeast 512 589 37,000  Level FlightAware
07:12AM 43.5570 16.5250 129° Southeast 512 589 37,000  Level FlightAware
07:12AM 43.5030 16.6140 130° Southeast 513 590 37,000  Level FlightAware
07:13AM 43.4350 16.7280 129° Southeast 513 590 37,000  Level FlightAware
07:14AM 43.3740 16.8300 129° Southeast 513 590 37,000  Level FlightAware
07:15AM 43.3150 16.9290 129° Southeast 513 590 37,000  Level FlightAware
07:15AM 43.2530 17.0330 129° Southeast 514 592 37,000  Level FlightAware
07:16AM 43.1810 17.1480 131° Southeast 521 600 37,000  Level FlightAware
07:17AM 43.1190 17.2470 131° Southeast 521 600 37,000  Level FlightAware
07:17AM 43.0670 17.3300 131° Southeast 521 600 37,000  Level FlightAware
07:18AM 43.0000 17.4350 131° Southeast 522 601 37,000  Level FlightAware
07:19AM 42.9300 17.5460 131° Southeast 521 600 37,000  Level FlightAware
07:19AM 42.8630 17.6520 131° Southeast 521 600 37,000  Level FlightAware
07:20AM 42.7970 17.7540 131° Southeast 521 600 37,000  Level FlightAware
07:21AM 42.7240 17.8690 131° Southeast 518 596 37,000  Level FlightAware
07:21AM 42.6640 17.9620 131° Southeast 520 598 37,000  Level FlightAware
07:22AM 42.5930 18.0730 131° Southeast 525 604 37,000  Level FlightAware
07:23AM 42.5260 18.1760 131° Southeast 523 602 37,000  Level FlightAware
07:24AM 42.4570 18.2820 131° Southeast 522 601 37,000  Level FlightAware
07:24AM 42.3920 18.3800 132° Southeast 522 601 37,000  Level FlightAware
07:25AM 42.3220 18.4880 131° Southeast 522 601 37,000  Level FlightAware
07:26AM 42.2510 18.5960 132° Southeast 524 603 37,000  Level FlightAware
07:26AM 42.1920 18.6840 132° Southeast 527 606 37,000  Level FlightAware
07:27AM 42.1180 18.7960 132° Southeast 528 608 37,000  Level FlightAware
07:28AM 42.0460 18.9060 131° Southeast 531 611 37,000  Level FlightAware
07:28AM 41.9780 19.0070 132° Southeast 533 613 37,000  Level FlightAware
07:29AM 41.9170 19.0980 132° Southeast 535 616 37,000  Level FlightAware
07:30AM 41.8420 19.2090 132° Southeast 534 615 37,000  Level FlightAware
07:31AM 41.7670 19.3170 133° Southeast 532 612 37,000  Level FlightAware
07:31AM 41.6960 19.4080 136° Southeast 532 612 37,000  Level FlightAware
07:32AM 41.6210 19.5030 137° Southeast 533 613 37,000  Level FlightAware
07:33AM 41.5410 19.6040 137° Southeast 534 615 37,000  Level FlightAware
07:33AM 41.4680 19.6980 136° Southeast 534 615 37,000  Level FlightAware
07:34AM 41.3950 19.7900 137° Southeast 534 615 37,000  Level FlightAware
07:35AM 41.3140 19.8940 136° Southeast 534 615 37,000  Level FlightAware
07:36AM 41.2410 19.9870 136° Southeast 534 615 37,000  Level FlightAware
07:36AM 41.1710 20.0760 136° Southeast 533 613 37,000  Level FlightAware
07:37AM 41.0930 20.1730 137° Southeast 533 613 37,000  Level FlightAware
07:38AM 41.0210 20.2650 136° Southeast 534 615 37,000  Level FlightAware
07:38AM 40.9490 20.3560 136° Southeast 535 616 37,000  Level FlightAware
07:39AM 40.8630 20.4630 137° Southeast 534 615 37,000  Level FlightAware
07:40AM 40.7910 20.5510 137° Southeast 534 615 37,000  Level FlightAware
07:40AM 40.7340 20.6210 137° Southeast 532 612 37,000  Level FlightAware
07:41AM 40.6530 20.7200 137° Southeast 532 612 37,000  Level FlightAware
07:42AM 40.5760 20.8130 137° Southeast 531 611 37,000  Level FlightAware
07:42AM 40.5080 20.8960 137° Southeast 529 609 37,000  Level FlightAware
07:43AM 40.4360 20.9830 137° Southeast 527 606 37,000  Level FlightAware
07:44AM 40.3640 21.0690 138° Southeast 527 606 37,000  Level FlightAware
07:44AM 40.2880 21.1600 138° Southeast 529 609 37,000  Level FlightAware
07:45AM 40.2060 21.2570 138° Southeast 528 608 37,000  Level FlightAware
07:46AM 40.1320 21.3460 137° Southeast 528 608 37,000  Level FlightAware
07:46AM 40.0640 21.4260 138° Southeast 528 608 37,000  Level FlightAware
07:47AM 39.9880 21.5150 138° Southeast 530 610 37,000  Level FlightAware
07:48AM 39.9190 21.5970 138° Southeast 531 611 37,000  Level FlightAware
07:48AM 39.8450 21.6830 138° Southeast 532 612 37,000  Level FlightAware
07:49AM 39.7650 21.7770 138° Southeast 534 615 37,000  Level FlightAware
07:50AM 39.6830 21.8730 138° Southeast 536 617 37,000  Level FlightAware
07:51AM 39.6090 21.9580 138° Southeast 537 618 37,000  Level FlightAware
07:51AM 39.5310 22.0480 138° Southeast 538 619 37,000  Level FlightAware
07:52AM 39.4580 22.1330 138° Southeast 540 621 37,000  Level FlightAware
07:53AM 39.3750 22.2280 138° Southeast 541 623 37,000  Level FlightAware
07:53AM 39.2970 22.3180 138° Southeast 542 624 37,000  Level FlightAware
07:54AM 39.2300 22.3950 138° Southeast 543 625 37,000  Level FlightAware
07:55AM 39.1430 22.4940 139° Southeast 544 626 37,000  Level FlightAware
07:55AM 39.0610 22.5880 138° Southeast 544 626 37,000  Level FlightAware
07:56AM 38.9850 22.6740 139° Southeast 544 626 37,000  Level FlightAware
07:57AM 38.9100 22.7600 138° Southeast 543 625 37,000  Level FlightAware
07:57AM 38.8390 22.8410 138° Southeast 541 623 37,000  Level FlightAware
07:58AM 38.7610 22.9290 139° Southeast 540 621 37,000  Level FlightAware
07:59AM 38.6790 23.0200 139° Southeast 539 620 37,000  Level FlightAware
07:59AM 38.6070 23.1010 139° Southeast 539 620 37,000  Level FlightAware
08:00AM 38.5170 23.2010 139° Southeast 538 619 37,000  Level FlightAware
08:01AM 38.4420 23.2860 138° Southeast 537 618 37,000  Level FlightAware
08:01AM 38.3820 23.3520 139° Southeast 535 616 37,000  Level FlightAware
08:02AM 38.2920 23.4520 139° Southeast 534 615 37,000  Level FlightAware
08:03AM 38.2180 23.5350 139° Southeast 534 615 37,000  Level FlightAware
08:03AM 38.1550 23.6050 139° Southeast 535 616 37,000  Level FlightAware
08:04AM 38.0720 23.6970 139° Southeast 537 618 37,000  Level FlightAware
08:05AM 37.9930 23.7840 139° Southeast 539 620 37,000  Level FlightAware
08:06AM 37.9140 23.8710 139° Southeast 540 621 37,000  Level FlightAware
08:06AM 37.8380 23.9550 139° Southeast 541 623 37,000  Level FlightAware
08:07AM 37.7640 24.0370 139° Southeast 542 624 37,000  Level FlightAware
08:08AM 37.6770 24.1310 139° Southeast 543 625 37,000  Level FlightAware
08:08AM 37.6070 24.2080 139° Southeast 543 625 37,000  Level FlightAware
08:09AM 37.5330 24.2940 137° Southeast 551 634 37,000  Level FlightAware
08:10AM 37.4700 24.4010 127° Southeast 561 646 37,000  Level FlightAware
08:10AM 37.4180 24.5030 123° Southeast 562 647 37,000  Level FlightAware
08:11AM 37.3650 24.6090 122° Southeast 563 648 37,000  Level FlightAware
08:12AM 37.3040 24.7310 122° Southeast 564 649 37,000  Level FlightAware
08:12AM 37.2460 24.8470 122° Southeast 564 649 37,000  Level FlightAware
08:13AM 37.1950 24.9480 122° Southeast 564 649 37,000  Level FlightAware
08:14AM 37.1280 25.0790 123° Southeast 564 649 37,000  Level FlightAware
08:14AM 37.0680 25.1980 122° Southeast 564 649 37,000  Level FlightAware
08:15AM 37.0130 25.3080 122° Southeast 564 649 37,000  Level FlightAware
08:16AM 36.9530 25.4240 123° Southeast 563 648 37,000  Level FlightAware
08:17AM 36.8950 25.5390 122° Southeast 562 647 37,000  Level FlightAware
08:17AM 36.8350 25.6560 123° Southeast 561 646 37,000  Level FlightAware
08:18AM 36.7750 25.7730 123° Southeast 559 643 37,000  Level FlightAware
08:19AM 36.7150 25.8880 123° Southeast 557 641 37,000  Level FlightAware
08:19AM 36.6640 25.9890 122° Southeast 555 639 37,000  Level FlightAware
08:20AM 36.6070 26.0980 123° Southeast 554 638 37,000  Level FlightAware
08:21AM 36.5440 26.2210 122° Southeast 555 639 37,000  Level FlightAware
08:21AM 36.4920 26.3390 119° Southeast 559 643 37,000  Level FlightAware
08:22AM 36.4500 26.4440 116° Southeast 559 643 37,000  Level FlightAware
08:23AM 36.4030 26.5610 116° Southeast 559 643 37,000  Level FlightAware
08:23AM 36.3550 26.6810 116° Southeast 558 642 37,000  Level FlightAware
08:24AM 36.2990 26.8080 119° Southeast 553 636 37,000  Level FlightAware
08:25AM 36.2360 26.9310 122° Southeast 552 635 37,000  Level FlightAware
08:26AM 36.1760 27.0480 122° Southeast 551 634 37,000  Level FlightAware
08:27AM 36.1060 27.1830 123° Southeast 551 634 37,000  Level FlightAware
08:27AM 36.0500 27.2920 122° Southeast 551 634 37,000  Level FlightAware
08:28AM 35.9780 27.4240 124° Southeast 551 634 37,000  Level FlightAware
08:29AM 35.9320 27.5140 122° Southeast 551 634 37,000  Level FlightAware
08:30AM 35.8740 27.6290 122° Southeast 551 634 37,000  Level FlightAware
08:30AM 35.8350 27.7060 122° Southeast 551 634 37,000  Level FlightAware
08:31AM 35.7450 27.8640 125° Southeast 550 633 37,000  Level FlightAware
08:31AM 35.7010 27.9490 122° Southeast 550 633 37,000  Level FlightAware
08:32AM 35.6440 28.0530 124° Southeast 550 633 37,000  Level FlightAware
08:33AM 35.5760 28.1820 123° Southeast 551 634 37,000  Level FlightAware
08:33AM 35.5250 28.2760 124° Southeast 551 634 37,000  Level FlightAware
08:34AM 35.4620 28.3910 124° Southeast 551 634 37,000  Level FlightAware
08:35AM 35.4050 28.4960 124° Southeast 553 636 37,000  Level FlightAware
08:35AM 35.3560 28.5870 123° Southeast 553 636 37,000  Level FlightAware
08:36AM 35.3040 28.6820 124° Southeast 552 635 37,000  Level FlightAware
08:37AM 35.2360 28.8040 124° Southeast 551 634 37,000  Level FlightAware
08:38AM 35.1760 28.9130 124° Southeast 551 634 37,000  Level FlightAware
08:38AM 35.1170 29.0200 124° Southeast 551 634 37,000  Level FlightAware
08:39AM 35.0550 29.1320 124° Southeast 552 635 37,000  Level FlightAware
08:40AM 35.0110 29.2110 124° Southeast 551 634 37,000  Level FlightAware
08:40AM 34.9440 29.3310 124° Southeast 550 633 37,000  Level FlightAware
08:41AM 34.8970 29.4170 124° Southeast 550 633 37,000  Level FlightAware
08:42AM 34.8190 29.5550 125° Southeast 545 627 37,000  Level FlightAware
08:42AM 34.7590 29.6600 125° Southeast 545 627 37,000  Level FlightAware
08:43AM 34.7020 29.7600 125° Southeast 548 631 37,000  Level FlightAware
08:44AM 34.6380 29.8740 124° Southeast 541 623 37,000  Level FlightAware
08:45AM 34.5700 29.9940 125° Southeast 545 627 37,000  Level FlightAware
08:45AM 34.5150 30.0940 124° Southeast 545 627 37,000  Level FlightAware
08:46AM 34.4340 30.2670 120° Southeast 548 631 37,000  Level FlightAware
08:47AM 34.3820 30.3740 120° Southeast 547 629 37,000  Level FlightAware
08:48AM 34.3390 30.4640 120° Southeast 545 627 37,000  Level FlightAware
08:48AM 34.2810 30.5840 120° Southeast 544 626 37,000  Level FlightAware
08:49AM 34.2320 30.6840 121° Southeast 542 624 37,000  Level FlightAware
08:50AM 34.1820 30.7850 121° Southeast 540 621 37,000  Level FlightAware
08:50AM 34.1240 30.9030 121° Southeast 539 620 37,000  Level FlightAware
08:51AM 34.0730 31.0060 121° Southeast 536 617 37,000  Level FlightAware
08:52AM 34.0230 31.1080 121° Southeast 535 616 37,000  Level FlightAware
08:52AM 33.9690 31.2170 121° Southeast 534 615 37,000  Level FlightAware
08:53AM 33.9210 31.3130 121° Southeast 534 615 37,000  Level FlightAware
08:54AM 33.8640 31.4280 121° Southeast 533 613 37,000  Level FlightAware
08:55AM 33.8110 31.5360 121° Southeast 534 615 37,000  Level FlightAware
08:55AM 33.7680 31.6220 121° Southeast 533 613 37,000  Level FlightAware
08:56AM 33.7120 31.7330 121° Southeast 532 612 37,000  Level FlightAware
08:57AM 33.6580 31.8410 121° Southeast 532 612 37,000  Level FlightAware
08:57AM 33.6020 31.9510 121° Southeast 531 611 37,000  Level FlightAware
08:58AM 33.5530 32.0490 121° Southeast 531 611 37,000  Level FlightAware
08:59AM 33.5010 32.1510 121° Southeast 531 611 37,000 -120 Level FlightAware
08:59AM 33.4430 32.2670 121° Southeast 525 604 36,900 -480 Descending FlightAware
09:00AM 33.3940 32.3620 122° Southeast 515 593 36,400 -900 Descending FlightAware
09:01AM 33.3240 32.5000 121° Southeast 519 597 35,400 -1,020 Descending FlightAware
09:02AM 33.2680 32.6090 122° Southeast 514 592 34,800 -780 Descending FlightAware
09:02AM 33.2280 32.6870 121° Southeast 510 587 34,400 -1,140 Descending FlightAware
09:03AM 33.1680 32.8020 122° Southeast 505 581 33,300 -1,980 Descending FlightAware
09:04AM 33.1200 32.8930 122° Southeast 498 573 31,700 -2,280 Descending FlightAware
09:04AM 33.0730 32.9840 122° Southeast 495 570 30,200 -2,280 Descending FlightAware
09:05AM 33.0250 33.0800 121° Southeast 484 557 28,700 -2,280 Descending FlightAware
09:06AM 32.9740 33.1790 122° Southeast 469 540 27,100 -2,220 Descending FlightAware
09:06AM 32.9240 33.2760 122° Southeast 456 525 25,500 -2,100 Descending FlightAware
09:07AM 32.8790 33.3640 121° Southeast 441 507 24,100 -1,980 Descending FlightAware
09:08AM 32.8290 33.4510 124° Southeast 425 489 22,700 -1,860 Descending FlightAware
09:08AM 32.7910 33.5120 127° Southeast 412 474 21,700 -1,740 Descending FlightAware
09:09AM 32.7430 33.5900 126° Southeast 399 459 20,500 -1,680 Descending FlightAware
09:10AM 32.7000 33.6610 126° Southeast 387 445 19,400 -1,620 Descending FlightAware
09:10AM 32.6600 33.7290 125° Southeast 383 441 18,400 -1,680 Descending FlightAware
09:11AM 32.6110 33.8100 126° Southeast 390 449 17,100 -1,680 Descending FlightAware
09:12AM 32.5680 33.8800 126° Southeast 376 433 16,000 -1,560 Descending FlightAware
09:13AM 32.5240 33.9540 125° Southeast 364 419 14,900 -1,500 Descending FlightAware
09:13AM 32.4850 34.0180 126° Southeast 355 409 13,900 -1,560 Descending FlightAware
09:14AM 32.4440 34.0840 126° Southeast 361 415 12,800 -1,440 Descending FlightAware
09:15AM 32.4120 34.1360 126° Southeast 356 410 12,000 -1,080 Descending FlightAware
09:16AM 32.3540 34.2300 126° Southeast 346 398 11,100 -600 Descending FlightAware
09:16AM 32.3250 34.2770 126° Southeast 346 398 11,100 -1,380 Level FlightAware
09:17AM 32.2960 34.3330 121° Southeast 9,500 -2,100 Descending FlightAware
09:17AM 32.2720 34.3760 123° Southeast 302 348 8,800 -1,320 Descending FlightAware
09:18AM 32.2440 34.4250 124° Southeast 298 343 8,100 -1,320 Descending FlightAware
09:18AM 32.2250 34.4590 123° Southeast 292 336 7,500 -1,140 Descending FlightAware
09:19AM 32.2030 34.4970 124° Southeast 287 330 7,000 -1,200 Descending FlightAware
09:19AM 32.1880 34.5230 124° Southeast 283 326 6,600 -1,260 Descending FlightAware
09:20AM 32.1660 34.5610 124° Southeast 278 320 5,900 -1,320 Descending FlightAware
09:20AM 32.1400 34.6060 124° Southeast 276 318 5,200 -780 Descending FlightAware
09:21AM 32.1240 34.6340 124° Southeast 277 319 5,200  Level FlightAware
09:21AM 32.1100 34.6580 125° Southeast 279 321 5,200  Level FlightAware
09:21AM 32.0920 34.6880 125° Southeast 262 302 5,200  Level FlightAware
09:22AM 32.0730 34.7210 124° Southeast 235 270 5,200  Level FlightAware
09:22AM 32.0590 34.7460 123° Southeast 236 272 5,200  Level FlightAware
09:22AM 32.0540 34.7530 130° Southeast 237 273 5,200 -180 Level FlightAware
09:23AM 32.0300 34.7850 131° Southeast 213 245 5,100 -420 Descending FlightAware
09:23AM 32.0190 34.7980 135° Southeast 211 243 4,900 -420 Descending FlightAware
09:24AM 32.0030 34.8160 136° Southeast 211 243 4,800 -600 Descending FlightAware
09:24AM 31.9790 34.8420 137° Southeast 208 239 4,400 -1,080 Descending FlightAware
09:25AM 31.9640 34.8590 136° Southeast 211 243 3,900 -1,620 Descending FlightAware
09:25AM 31.9560 34.8800 114° Southeast 210 242 3,300 -1,320 Descending FlightAware
09:25AM 31.9610 34.9110 79° East 196 226 2,900 -540 Descending FlightAware
09:26AM 31.9690 34.9450 74° East 195 224 2,700 -300 Descending FlightAware
09:29AM 32.0095 34.8769 305° West  Level Estimated